Time;durP1;ratioP1;P1;durP2;ratioP2;P2;SDS_P1;SDS_P2;PMS_P1;PMS_P2;Temp;Humidity;BMP_temperature;BMP_pressure;BME280_temperature;BME280_humidity;BME280_pressure;Samples;Min_cycle;Max_cycle;Signal;HPM_P1;HPM_P2
2020/12/11 00:00:47;;;;;;;;;;;;;;;-3.39;96.18;91815.44;1063678;55;20235;-84
2020/12/11 00:01:47;;;;;;;;;;;;;;;-3.45;95.22;91816.88;1063602;55;20153;-84
2020/12/11 00:02:48;;;;;;;;;;;;;;;-3.38;96.00;91822.94;1067876;55;20172;-83
2020/12/11 00:03:49;;;;;;;;;;;;;;;-3.43;96.29;91817.25;1065879;55;20153;-85
2020/12/11 00:04:52;;;;;;;;;;;;;;;-3.44;96.12;91821.75;1066012;55;20173;-84
2020/12/11 00:05:53;;;;;;;;;;;;;;;-3.40;94.92;91816.56;1067706;55;20153;-84
2020/12/11 00:06:57;;;;;;;;;;;;;;;-3.39;95.31;91812.81;1069963;55;20669;-88
2020/12/11 00:07:58;;;;;;;;;;;;;;;-3.38;95.11;91809.09;1065980;55;20240;-82
2020/12/11 00:08:58;;;;;;;;;;;;;;;-3.39;94.63;91810.97;1065748;55;20161;-84
2020/12/11 00:09:59;;;;;;;;;;;;;;;-3.40;94.54;91809.47;1065713;55;20172;-85
2020/12/11 00:10:59;;;;;;;;;;;;;;;-3.37;94.63;91808.00;1067907;55;20153;-82
2020/12/11 00:12:01;;;;;;;;;;;;;;;-3.46;94.85;91802.34;1065786;55;20653;-84
2020/12/11 00:13:02;;;;;;;;;;;;;;;-3.49;95.97;91805.66;1063571;55;20166;-84
2020/12/11 00:14:02;;;;;;;;;;;;;;;-3.45;95.57;91796.75;1065587;55;20243;-83
2020/12/11 00:15:04;;;;;;;;;;;;;;;-3.43;94.83;91798.97;1065469;55;20172;-85
2020/12/11 00:16:07;;;;;;;;;;;;;;;-3.52;94.06;91799.28;1067679;55;20184;-83
2020/12/11 00:17:07;;;;;;;;;;;;;;;-3.55;94.86;91798.16;1070151;55;20184;-84
2020/12/11 00:18:09;;;;;;;;;;;;;;;-3.60;94.28;91795.09;1067700;55;20161;-83
2020/12/11 00:19:10;;;;;;;;;;;;;;;-3.68;94.52;91794.31;1067932;55;20157;-83
2020/12/11 00:20:11;;;;;;;;;;;;;;;-3.69;94.36;91782.34;1067832;55;20543;-85
2020/12/11 00:21:11;;;;;;;;;;;;;;;-3.62;94.76;91787.63;1067830;55;20168;-85
2020/12/11 00:22:14;;;;;;;;;;;;;;;-3.67;95.17;91790.56;1065534;55;20149;-84
2020/12/11 00:23:15;;;;;;;;;;;;;;;-3.67;94.46;91787.97;1065805;55;20189;-83
2020/12/11 00:24:15;;;;;;;;;;;;;;;-3.60;95.61;91789.88;1069934;55;20192;-84
2020/12/11 00:25:15;;;;;;;;;;;;;;;-3.65;94.93;91785.72;1069867;55;20169;-85
2020/12/11 00:26:16;;;;;;;;;;;;;;;-3.72;95.91;91782.31;1070017;55;20172;-83
2020/12/11 00:27:17;;;;;;;;;;;;;;;-3.76;94.76;91781.53;1070074;55;20180;-84
2020/12/11 00:28:18;;;;;;;;;;;;;;;-3.71;95.16;91783.81;1067947;55;20241;-83
2020/12/11 00:29:18;;;;;;;;;;;;;;;-3.74;94.85;91782.66;1067735;55;20168;-83
2020/12/11 00:30:19;;;;;;;;;;;;;;;-3.72;94.93;91785.69;1067894;55;20188;-84
2020/12/11 00:31:24;;;;;;;;;;;;;;;-3.78;95.29;91779.28;1067865;55;20172;-84
2020/12/11 00:32:24;;;;;;;;;;;;;;;-3.85;94.78;91769.53;1069933;55;20184;-84
2020/12/11 00:33:25;;;;;;;;;;;;;;;-3.81;95.54;91774.78;1065627;55;20244;-83
2020/12/11 00:34:26;;;;;;;;;;;;;;;-3.80;95.52;91776.28;1065767;55;20173;-84
2020/12/11 00:35:27;;;;;;;;;;;;;;;-3.81;95.26;91775.53;1069991;55;20183;-83
2020/12/11 00:36:27;;;;;;;;;;;;;;;-3.81;96.35;91772.19;1069888;55;21092;-83
2020/12/11 00:37:27;;;;;;;;;;;;;;;-3.84;95.00;91770.28;1067808;55;20169;-82
2020/12/11 00:38:29;;;;;;;;;;;;;;;-3.85;95.73;91766.16;1063592;55;20209;-84
2020/12/11 00:39:30;;;;;;;;;;;;;;;-3.82;94.77;91775.88;1063506;55;20165;-85
2020/12/11 00:40:30;;;;;;;;;;;;;;;-3.78;95.18;91765.47;1065688;55;20661;-84
2020/12/11 00:41:31;;;;;;;;;;;;;;;-3.79;95.84;91769.94;1065595;55;20153;-85
2020/12/11 00:42:31;;;;;;;;;;;;;;;-3.85;96.26;91774.00;1063496;55;20178;-84
2020/12/11 00:43:31;;;;;;;;;;;;;;;-3.89;95.88;91770.59;1063457;55;20174;-84
2020/12/11 00:44:32;;;;;;;;;;;;;;;-3.90;95.63;91769.09;1065602;55;20176;-83
2020/12/11 00:45:33;;;;;;;;;;;;;;;-3.86;95.60;91772.50;1067651;55;20161;-83
2020/12/11 00:46:33;;;;;;;;;;;;;;;-3.88;95.94;91772.09;1067769;55;20231;-85
2020/12/11 00:47:36;;;;;;;;;;;;;;;-3.88;96.02;91766.88;1067792;55;20157;-84
2020/12/11 00:48:36;;;;;;;;;;;;;;;-3.93;95.95;91773.19;1065554;55;20225;-83
2020/12/11 00:49:37;;;;;;;;;;;;;;;-3.83;96.35;91763.94;1065678;55;20581;-85
2020/12/11 00:50:37;;;;;;;;;;;;;;;-3.83;96.15;91763.94;1067834;55;20180;-82
2020/12/11 00:51:38;;;;;;;;;;;;;;;-3.83;95.79;91756.09;1070054;55;20249;-83
2020/12/11 00:52:38;;;;;;;;;;;;;;;-3.92;96.20;91748.56;1072145;55;20152;-84
2020/12/11 00:53:40;;;;;;;;;;;;;;;-3.94;96.05;91755.28;1067575;55;20257;-83
2020/12/11 00:54:40;;;;;;;;;;;;;;;-3.93;96.70;91751.53;1067635;55;20181;-83
2020/12/11 00:55:41;;;;;;;;;;;;;;;-3.86;96.44;91747.16;1067682;55;20173;-83
2020/12/11 00:56:41;;;;;;;;;;;;;;;-3.87;96.25;91747.50;1065502;55;20158;-85
2020/12/11 00:57:42;;;;;;;;;;;;;;;-3.89;96.25;91744.50;1065430;55;20258;-83
2020/12/11 00:58:44;;;;;;;;;;;;;;;-3.89;96.32;91745.25;1065517;55;20189;-84
2020/12/11 00:59:44;;;;;;;;;;;;;;;-3.91;96.26;91744.09;1063549;55;20166;-83
2020/12/11 01:00:45;;;;;;;;;;;;;;;-3.94;96.61;91747.44;1065492;55;20259;-83
2020/12/11 01:01:45;;;;;;;;;;;;;;;-3.89;96.88;91745.25;1069740;55;20205;-85
2020/12/11 01:02:46;;;;;;;;;;;;;;;-3.92;96.67;91743.34;1067734;55;20617;-83
2020/12/11 01:03:47;;;;;;;;;;;;;;;-3.95;96.03;91745.91;1065611;55;20184;-84
2020/12/11 01:04:48;;;;;;;;;;;;;;;-3.92;96.02;91737.38;1063527;55;20155;-85
2020/12/11 01:05:48;;;;;;;;;;;;;;;-3.90;96.48;91737.78;1065241;55;20177;-84
2020/12/11 01:06:49;;;;;;;;;;;;;;;-3.92;96.61;91737.38;1069960;55;20171;-84
2020/12/11 01:07:49;;;;;;;;;;;;;;;-4.02;96.66;91736.19;1070102;55;20185;-85
2020/12/11 01:08:49;;;;;;;;;;;;;;;-3.97;96.39;91742.94;1067815;55;20176;-84
2020/12/11 01:09:50;;;;;;;;;;;;;;;-4.00;96.27;91743.62;1069868;55;20588;-85
2020/12/11 01:10:50;;;;;;;;;;;;;;;-3.96;96.48;91745.16;1067712;55;20149;-84
2020/12/11 01:11:51;;;;;;;;;;;;;;;-3.91;96.11;91751.94;1065606;55;20243;-84
2020/12/11 01:12:51;;;;;;;;;;;;;;;-3.95;96.34;91743.31;1063395;56;20653;-84
2020/12/11 01:13:52;;;;;;;;;;;;;;;-3.97;96.06;91742.94;1063387;56;20657;-84
2020/12/11 01:14:52;;;;;;;;;;;;;;;-3.92;96.73;91735.53;1067586;55;20173;-86
2020/12/11 01:15:53;;;;;;;;;;;;;;;-3.96;96.14;91736.59;1061206;56;20635;-83
2020/12/11 01:16:54;;;;;;;;;;;;;;;-4.03;95.96;91736.53;1061314;55;20193;-85
2020/12/11 01:17:54;;;;;;;;;;;;;;;-3.92;96.58;91732.16;1063442;56;20161;-86
2020/12/11 01:18:56;;;;;;;;;;;;;;;-3.93;97.16;91738.50;1067753;55;20154;-83
2020/12/11 01:19:57;;;;;;;;;;;;;;;-4.06;96.79;91724.97;1067815;55;20192;-84
2020/12/11 01:20:57;;;;;;;;;;;;;;;-4.06;96.81;91727.56;1069858;55;20180;-83
2020/12/11 01:21:57;;;;;;;;;;;;;;;-4.02;96.67;91725.75;1065708;55;20172;-83
2020/12/11 01:22:58;;;;;;;;;;;;;;;-4.01;96.30;91727.22;1065654;55;20196;-84
2020/12/11 01:23:58;;;;;;;;;;;;;;;-3.96;96.55;91724.28;1067703;55;20157;-84
2020/12/11 01:24:59;;;;;;;;;;;;;;;-3.98;96.47;91723.16;1063446;56;20166;-83
2020/12/11 01:25:59;;;;;;;;;;;;;;;-3.97;96.34;91716.84;1065512;55;20158;-84
2020/12/11 01:27:00;;;;;;;;;;;;;;;-3.95;96.47;91714.59;1065398;55;20246;-86
2020/12/11 01:28:00;;;;;;;;;;;;;;;-3.97;96.09;91712.38;1067534;55;20196;-84
2020/12/11 01:29:00;;;;;;;;;;;;;;;-4.03;96.21;91711.19;1065500;55;20153;-83
2020/12/11 01:30:01;;;;;;;;;;;;;;;-4.02;95.24;91711.94;1065418;55;20622;-83
2020/12/11 01:31:02;;;;;;;;;;;;;;;-4.07;95.84;91720.84;1067614;55;20157;-85
2020/12/11 01:32:04;;;;;;;;;;;;;;;-4.02;96.18;91715.31;1065495;55;20161;-83
2020/12/11 01:33:04;;;;;;;;;;;;;;;-4.14;96.50;91720.78;1063289;55;20154;-85
2020/12/11 01:34:05;;;;;;;;;;;;;;;-4.23;97.20;91720.31;1063303;56;20189;-84
2020/12/11 01:35:06;;;;;;;;;;;;;;;-4.14;97.72;91718.91;1067423;55;20166;-83
2020/12/11 01:36:06;;;;;;;;;;;;;;;-4.16;97.13;91715.91;1067635;55;20173;-82
2020/12/11 01:37:06;;;;;;;;;;;;;;;-4.08;97.40;91714.88;1067685;55;20175;-82
2020/12/11 01:38:07;;;;;;;;;;;;;;;-4.10;97.73;91711.13;1067707;55;20178;-84
2020/12/11 01:39:11;;;;;;;;;;;;;;;-4.05;97.07;91718.63;1065628;55;20244;-85
2020/12/11 01:40:11;;;;;;;;;;;;;;;-4.02;97.25;91725.75;1065474;55;20665;-83
2020/12/11 01:41:12;;;;;;;;;;;;;;;-4.02;96.55;91717.16;1061248;56;20263;-83
2020/12/11 01:42:13;;;;;;;;;;;;;;;-3.99;96.79;91711.25;1061203;56;20248;-83
2020/12/11 01:43:18;;;;;;;;;;;;;;;-3.97;96.60;91709.75;1063554;55;20180;-86
2020/12/11 01:44:18;;;;;;;;;;;;;;;-3.85;96.65;91706.88;1063492;55;20158;-84
2020/12/11 01:45:19;;;;;;;;;;;;;;;-3.91;96.15;91712.78;1063304;56;20283;-83
2020/12/11 01:46:20;;;;;;;;;;;;;;;-4.00;97.42;91710.47;1065500;55;20154;-83
2020/12/11 01:47:21;;;;;;;;;;;;;;;-3.93;96.23;91715.75;1067668;55;20220;-84
2020/12/11 01:48:21;;;;;;;;;;;;;;;-4.05;96.72;91713.41;1069608;55;20697;-84
2020/12/11 01:49:22;;;;;;;;;;;;;;;-4.06;96.18;91720.47;1067646;55;20168;-83
2020/12/11 01:50:23;;;;;;;;;;;;;;;-4.11;96.10;91722.69;1065582;55;20192;-87
2020/12/11 01:51:24;;;;;;;;;;;;;;;-4.14;96.67;91710.34;1067714;55;20161;-84
2020/12/11 01:52:25;;;;;;;;;;;;;;;-4.12;96.84;91716.72;1065523;55;20258;-85
2020/12/11 01:53:27;;;;;;;;;;;;;;;-4.02;97.33;91712.69;1063304;55;20262;-84
2020/12/11 01:54:27;;;;;;;;;;;;;;;-4.05;97.23;91701.09;1065539;55;20579;-85
2020/12/11 01:55:28;;;;;;;;;;;;;;;-4.06;96.12;91704.84;1063459;56;20240;-84
2020/12/11 01:56:40;;;;;;;;;;;;;;;-4.08;96.73;91707.06;1063386;56;20169;-83
2020/12/11 01:57:52;;;;;;;;;;;;;;;-4.13;96.45;91702.16;1068056;55;20269;-83
2020/12/11 01:58:59;;;;;;;;;;;;;;;-4.17;96.32;91698.78;1065552;55;20202;-84
2020/12/11 02:00:04;;;;;;;;;;;;;;;-4.21;97.42;91694.63;1066062;55;20165;-83
2020/12/11 02:01:05;;;;;;;;;;;;;;;-4.20;97.29;91688.31;1067732;55;20157;-83
2020/12/11 02:02:08;;;;;;;;;;;;;;;-4.11;97.17;91693.97;1067874;55;20719;-84
2020/12/11 02:03:10;;;;;;;;;;;;;;;-4.09;97.11;91689.88;1067591;55;20177;-83
2020/12/11 02:04:13;;;;;;;;;;;;;;;-4.09;96.50;91684.66;1065579;55;21183;-84
2020/12/11 02:05:15;;;;;;;;;;;;;;;-4.14;97.37;91679.78;1063444;55;20189;-83
2020/12/11 02:06:16;;;;;;;;;;;;;;;-4.10;96.74;91683.16;1065504;55;20176;-85
2020/12/11 02:07:16;;;;;;;;;;;;;;;-3.99;96.78;91675.44;1067712;55;20279;-84
2020/12/11 02:08:17;;;;;;;;;;;;;;;-4.07;97.14;91679.84;1065554;55;20188;-83
2020/12/11 02:09:21;;;;;;;;;;;;;;;-4.14;96.67;91679.78;1063383;56;20177;-84
2020/12/11 02:10:21;;;;;;;;;;;;;;;-4.11;96.90;91673.84;1063660;55;21040;-84
2020/12/11 02:11:23;;;;;;;;;;;;;;;-4.13;96.28;91673.44;1063212;56;20158;-85
2020/12/11 02:12:23;;;;;;;;;;;;;;;-4.09;96.63;91669.00;1063314;55;20170;-83
2020/12/11 02:13:24;;;;;;;;;;;;;;;-4.09;96.78;91666.41;1065553;55;20161;-83
2020/12/11 02:14:25;;;;;;;;;;;;;;;-4.08;96.35;91657.50;1067572;55;20273;-83
2020/12/11 02:15:26;;;;;;;;;;;;;;;-4.07;96.38;91656.38;1065434;55;20699;-84
2020/12/11 02:16:26;;;;;;;;;;;;;;;-4.17;96.69;91653.66;1067648;55;20165;-83
2020/12/11 02:17:26;;;;;;;;;;;;;;;-4.11;96.75;91652.22;1068012;55;20216;-83
2020/12/11 02:18:27;;;;;;;;;;;;;;;-4.11;96.17;91654.84;1065862;55;20185;-83
2020/12/11 02:19:32;;;;;;;;;;;;;;;-4.15;95.88;91652.19;1063728;55;20170;-83
2020/12/11 02:20:33;;;;;;;;;;;;;;;-4.20;96.42;91660.34;1065967;55;20238;-83
2020/12/11 02:21:33;;;;;;;;;;;;;;;-4.18;96.57;91652.91;1065598;55;20165;-83
2020/12/11 02:22:34;;;;;;;;;;;;;;;-4.16;97.02;91652.56;1065679;55;20188;-85
2020/12/11 02:23:34;;;;;;;;;;;;;;;-4.21;96.85;91652.91;1067863;55;20165;-82
2020/12/11 02:24:35;;;;;;;;;;;;;;;-4.18;96.95;91654.78;1065582;55;20185;-84
2020/12/11 02:25:35;;;;;;;;;;;;;;;-4.16;96.61;91648.09;1063447;55;20648;-83
2020/12/11 02:26:35;;;;;;;;;;;;;;;-4.21;95.87;91645.81;1067765;55;20592;-81
2020/12/11 02:27:38;;;;;;;;;;;;;;;-4.11;97.22;91647.03;1067771;55;20664;-84
2020/12/11 02:28:38;;;;;;;;;;;;;;;-4.11;96.65;91657.44;1069754;55;20599;-84
2020/12/11 02:29:39;;;;;;;;;;;;;;;-4.15;96.94;91654.81;1067807;55;20172;-83
2020/12/11 02:30:39;;;;;;;;;;;;;;;-4.23;96.75;91649.88;1065562;55;20246;-82
2020/12/11 02:31:40;;;;;;;;;;;;;;;-4.28;96.44;91650.97;1067824;55;20212;-84
2020/12/11 02:32:40;;;;;;;;;;;;;;;-4.20;96.40;91659.59;1069956;55;20149;-84
2020/12/11 02:33:41;;;;;;;;;;;;;;;-4.14;96.25;91664.13;1067768;55;20168;-83
2020/12/11 02:34:41;;;;;;;;;;;;;;;-4.07;95.53;91658.22;1067691;55;20192;-82
2020/12/11 02:35:42;;;;;;;;;;;;;;;-4.17;96.22;91659.66;1065638;55;20180;-83
2020/12/11 02:36:42;;;;;;;;;;;;;;;-4.17;96.38;91657.03;1063296;55;20153;-82
2020/12/11 02:37:43;;;;;;;;;;;;;;;-4.18;95.67;91665.94;1065651;55;20158;-83
2020/12/11 02:38:43;;;;;;;;;;;;;;;-4.25;95.47;91665.16;1065401;55;20231;-83
2020/12/11 02:39:44;;;;;;;;;;;;;;;-4.22;96.82;91651.38;1065506;55;20212;-83
2020/12/11 02:40:55;;;;;;;;;;;;;;;-4.18;96.47;91654.78;1065587;55;20177;-81
2020/12/11 02:41:56;;;;;;;;;;;;;;;-4.35;95.59;91666.53;1066006;55;20205;-82
2020/12/11 02:42:57;;;;;;;;;;;;;;;-4.26;96.40;91661.78;1063411;55;20609;-84
2020/12/11 02:43:57;;;;;;;;;;;;;;;-4.20;96.69;91654.37;1063482;55;20177;-82
2020/12/11 02:44:58;;;;;;;;;;;;;;;-4.17;96.05;91657.03;1067792;55;20188;-83
2020/12/11 02:45:58;;;;;;;;;;;;;;;-4.21;96.27;91664.09;1069954;55;20153;-83
2020/12/11 02:46:59;;;;;;;;;;;;;;;-4.23;96.82;91660.31;1063540;55;20158;-84
2020/12/11 02:47:59;;;;;;;;;;;;;;;-4.12;96.09;91648.88;1063598;55;20158;-84
2020/12/11 02:49:00;;;;;;;;;;;;;;;-4.14;96.12;91648.47;1066750;55;20725;-83
2020/12/11 02:50:01;;;;;;;;;;;;;;;-4.15;95.88;91643.62;1067811;55;20165;-83
2020/12/11 02:51:01;;;;;;;;;;;;;;;-4.23;95.35;91647.28;1067892;55;20653;-84
2020/12/11 02:52:02;;;;;;;;;;;;;;;-4.23;95.86;91637.59;1067957;55;20196;-82
2020/12/11 02:53:02;;;;;;;;;;;;;;;-4.20;96.15;91634.28;1067841;55;20164;-84
2020/12/11 02:54:03;;;;;;;;;;;;;;;-4.12;96.52;91635.09;1067702;55;20181;-83
2020/12/11 02:55:04;;;;;;;;;;;;;;;-4.14;96.58;91635.44;1065580;55;20161;-84
2020/12/11 02:56:04;;;;;;;;;;;;;;;-4.19;95.82;91637.63;1063440;55;20166;-84
2020/12/11 02:57:05;;;;;;;;;;;;;;;-4.20;95.64;91629.06;1062541;55;20189;-82
2020/12/11 02:58:06;;;;;;;;;;;;;;;-4.14;95.78;91625.00;1067827;55;20217;-83
2020/12/11 02:59:07;;;;;;;;;;;;;;;-4.15;95.33;91625.37;1065771;55;20173;-84
2020/12/11 03:00:07;;;;;;;;;;;;;;;-4.11;95.75;91619.06;1063614;55;20574;-84
2020/12/11 03:01:08;;;;;;;;;;;;;;;-4.15;95.87;91618.28;1064660;55;20184;-83
2020/12/11 03:02:09;;;;;;;;;;;;;;;-4.13;95.21;91618.66;1065729;55;20266;-82
2020/12/11 03:03:09;;;;;;;;;;;;;;;-4.18;95.10;91616.37;1064977;55;20177;-83
2020/12/11 03:04:10;;;;;;;;;;;;;;;-4.24;94.82;91620.44;1063409;55;20170;-83
2020/12/11 03:05:10;;;;;;;;;;;;;;;-4.22;95.68;91615.59;1061325;56;20154;-82
2020/12/11 03:06:11;;;;;;;;;;;;;;;-4.28;95.25;91614.44;1064863;55;20158;-83
2020/12/11 03:07:11;;;;;;;;;;;;;;;-4.22;95.27;91609.66;1067909;55;20187;-83
2020/12/11 03:08:11;;;;;;;;;;;;;;;-4.31;95.04;91612.56;1065526;55;20672;-83
2020/12/11 03:09:12;;;;;;;;;;;;;;;-4.32;95.57;91605.84;1063540;55;20274;-83
2020/12/11 03:10:12;;;;;;;;;;;;;;;-4.30;95.26;91603.63;1063408;55;20255;-83
2020/12/11 03:11:13;;;;;;;;;;;;;;;-4.34;94.96;91598.38;1063411;55;20181;-83
2020/12/11 03:12:16;;;;;;;;;;;;;;;-4.36;96.05;91595.38;1063568;55;20266;-83
2020/12/11 03:13:16;;;;;;;;;;;;;;;-4.33;96.03;91583.47;1063586;55;20158;-82
2020/12/11 03:14:16;;;;;;;;;;;;;;;-4.32;96.24;91584.97;1063389;55;20271;-84
2020/12/11 03:15:17;;;;;;;;;;;;;;;-4.32;95.03;91584.97;1063636;55;20570;-84
2020/12/11 03:16:18;;;;;;;;;;;;;;;-4.34;94.87;91582.00;1065639;55;20162;-83
2020/12/11 03:17:18;;;;;;;;;;;;;;;-4.27;95.52;91581.28;1063500;55;20181;-83
2020/12/11 03:18:19;;;;;;;;;;;;;;;-4.33;95.25;91581.63;1063599;55;20158;-84
2020/12/11 03:19:20;;;;;;;;;;;;;;;-4.41;95.71;91577.44;1065690;55;20232;-84
2020/12/11 03:20:23;;;;;;;;;;;;;;;-4.33;95.58;91578.28;1065819;55;20183;-83
2020/12/11 03:21:24;;;;;;;;;;;;;;;-4.30;95.53;91582.78;1067706;55;20161;-82
2020/12/11 03:22:24;;;;;;;;;;;;;;;-4.21;95.96;91570.19;1067726;55;20597;-83
2020/12/11 03:23:24;;;;;;;;;;;;;;;-4.22;95.32;91573.88;1069875;55;20197;-83
2020/12/11 03:24:25;;;;;;;;;;;;;;;-4.24;95.11;91563.06;1065519;55;20162;-83
2020/12/11 03:25:25;;;;;;;;;;;;;;;-4.27;95.38;91565.63;1063285;55;20150;-84
2020/12/11 03:26:26;;;;;;;;;;;;;;;-4.32;95.64;91558.91;1065645;55;20649;-83
2020/12/11 03:27:26;;;;;;;;;;;;;;;-4.27;94.92;91555.94;1065603;55;20251;-82
2020/12/11 03:28:27;;;;;;;;;;;;;;;-4.38;95.06;91566.31;1063216;55;20158;-83
2020/12/11 03:29:27;;;;;;;;;;;;;;;-4.43;95.28;91565.91;1065594;55;20157;-83
2020/12/11 03:30:28;;;;;;;;;;;;;;;-4.41;95.35;91561.06;1063447;55;20178;-83
2020/12/11 03:31:29;;;;;;;;;;;;;;;-4.40;96.16;91557.34;1063451;55;20165;-83
2020/12/11 03:32:29;;;;;;;;;;;;;;;-4.38;96.10;91555.13;1065642;55;20145;-81
2020/12/11 03:33:30;;;;;;;;;;;;;;;-4.43;95.83;91555.47;1063258;55;20184;-82
2020/12/11 03:34:30;;;;;;;;;;;;;;;-4.45;95.96;91557.69;1065717;55;20207;-84
2020/12/11 03:35:31;;;;;;;;;;;;;;;-4.38;96.37;91562.97;1065579;55;20188;-83
2020/12/11 03:36:31;;;;;;;;;;;;;;;-4.48;96.43;91555.78;1067735;55;20153;-84
2020/12/11 03:37:32;;;;;;;;;;;;;;;-4.46;95.96;91550.97;1069893;55;20188;-83
2020/12/11 03:38:32;;;;;;;;;;;;;;;-4.46;95.94;91550.97;1070269;55;20180;-83
2020/12/11 03:39:33;;;;;;;;;;;;;;;-4.46;95.57;91546.50;1067778;55;20154;-84
2020/12/11 03:40:33;;;;;;;;;;;;;;;-4.40;95.85;91552.12;1063436;55;20150;-84
2020/12/11 03:41:34;;;;;;;;;;;;;;;-4.42;96.13;91549.88;1061334;55;20185;-85
2020/12/11 03:42:34;;;;;;;;;;;;;;;-4.42;95.81;91552.50;1063386;55;20246;-84
2020/12/11 03:43:35;;;;;;;;;;;;;;;-4.39;96.21;91553.63;1063332;55;20558;-83
2020/12/11 03:44:35;;;;;;;;;;;;;;;-4.46;95.88;91548.37;1061351;56;20173;-84
2020/12/11 03:45:36;;;;;;;;;;;;;;;-4.51;96.26;91546.09;1063236;55;20771;-84
2020/12/11 03:46:36;;;;;;;;;;;;;;;-4.53;96.32;91545.69;1065509;55;20196;-82
2020/12/11 03:47:37;;;;;;;;;;;;;;;-4.46;96.39;91551.72;1065600;55;20157;-84
2020/12/11 03:48:39;;;;;;;;;;;;;;;-4.50;96.64;91548.31;1067663;55;20158;-84
2020/12/11 03:49:39;;;;;;;;;;;;;;;-4.39;95.92;91540.56;1067782;55;20161;-84
2020/12/11 03:50:40;;;;;;;;;;;;;;;-4.46;95.80;91543.16;1063449;55;20158;-83
2020/12/11 03:51:40;;;;;;;;;;;;;;;-4.48;95.89;91540.13;1065661;55;20165;-84
2020/12/11 03:52:40;;;;;;;;;;;;;;;-4.40;96.49;91539.09;1067672;55;20625;-82
2020/12/11 03:53:41;;;;;;;;;;;;;;;-4.40;96.43;91539.09;1065530;55;20583;-84
2020/12/11 03:54:41;;;;;;;;;;;;;;;-4.39;96.57;91551.00;1065523;55;20710;-84
2020/12/11 03:55:42;;;;;;;;;;;;;;;-4.40;96.08;91536.47;1065533;55;20161;-84
2020/12/11 03:56:43;;;;;;;;;;;;;;;-4.38;96.01;91535.03;1065649;55;20240;-84
2020/12/11 03:57:43;;;;;;;;;;;;;;;-4.39;96.13;91528.31;1067760;55;20695;-83
2020/12/11 03:58:44;;;;;;;;;;;;;;;-4.41;96.30;91527.16;1067664;55;20172;-83
2020/12/11 03:59:45;;;;;;;;;;;;;;;-4.39;96.47;91532.75;1067609;55;20161;-85
2020/12/11 04:00:45;;;;;;;;;;;;;;;-4.38;96.62;91532.41;1063313;55;20571;-83
2020/12/11 04:01:46;;;;;;;;;;;;;;;-4.36;96.61;91543.22;1065438;55;20161;-82
2020/12/11 04:02:46;;;;;;;;;;;;;;;-4.39;96.42;91530.16;1069805;55;20180;-84
2020/12/11 04:03:47;;;;;;;;;;;;;;;-4.35;96.44;91533.53;1070052;55;20208;-84
2020/12/11 04:04:47;;;;;;;;;;;;;;;-4.37;96.78;91527.94;1063429;55;20199;-84
2020/12/11 04:05:48;;;;;;;;;;;;;;;-4.44;96.55;91530.50;1063402;55;20154;-85
2020/12/11 04:06:48;;;;;;;;;;;;;;;-4.38;96.55;91536.88;1065483;55;20185;-84
2020/12/11 04:07:49;;;;;;;;;;;;;;;-4.34;96.09;91535.78;1065520;55;20161;-83
2020/12/11 04:08:49;;;;;;;;;;;;;;;-4.38;96.41;91535.03;1063338;55;20189;-83
2020/12/11 04:09:50;;;;;;;;;;;;;;;-4.29;96.87;91536.56;1065507;55;20181;-83
2020/12/11 04:10:50;;;;;;;;;;;;;;;-4.36;97.01;91537.25;1067635;55;20172;-83
2020/12/11 04:11:51;;;;;;;;;;;;;;;-4.37;96.29;91536.50;1065515;55;20274;-85
2020/12/11 04:12:51;;;;;;;;;;;;;;;-4.32;95.94;91540.66;1065539;55;20191;-83
2020/12/11 04:13:52;;;;;;;;;;;;;;;-4.39;95.97;91532.75;1063340;55;20154;-83
2020/12/11 04:14:53;;;;;;;;;;;;;;;-4.37;95.92;91530.56;1063325;55;20266;-84
2020/12/11 04:15:54;;;;;;;;;;;;;;;-4.43;96.88;91529.41;1063465;55;20157;-83
2020/12/11 04:16:54;;;;;;;;;;;;;;;-4.40;96.64;91524.19;1067667;55;20270;-86
2020/12/11 04:17:54;;;;;;;;;;;;;;;-4.35;96.49;91526.44;1069799;55;20215;-85
2020/12/11 04:18:55;;;;;;;;;;;;;;;-4.30;96.02;91522.78;1067611;55;20277;-83
2020/12/11 04:19:55;;;;;;;;;;;;;;;-4.30;96.29;91509.75;1063392;55;20643;-84
2020/12/11 04:20:56;;;;;;;;;;;;;;;-4.29;96.93;91511.25;1065438;55;20169;-83
2020/12/11 04:21:57;;;;;;;;;;;;;;;-4.32;96.77;91507.47;1067583;55;20192;-84
2020/12/11 04:22:58;;;;;;;;;;;;;;;-4.34;96.62;91506.38;1065537;55;20269;-84
2020/12/11 04:23:58;;;;;;;;;;;;;;;-4.41;96.37;91509.66;1065512;55;20157;-83
2020/12/11 04:25:00;;;;;;;;;;;;;;;-4.40;96.50;91510.41;1067669;55;20161;-83
2020/12/11 04:26:01;;;;;;;;;;;;;;;-4.43;96.47;91511.16;1063312;55;20181;-82
2020/12/11 04:27:01;;;;;;;;;;;;;;;-4.53;96.54;91506.56;1063352;55;20656;-84
2020/12/11 04:28:05;;;;;;;;;;;;;;;-4.40;96.77;91513.00;1061313;55;20255;-83
2020/12/11 04:29:07;;;;;;;;;;;;;;;-4.37;95.63;91509.69;1065727;55;20195;-83
2020/12/11 04:30:10;;;;;;;;;;;;;;;-4.50;96.53;91511.09;1069858;55;20169;-83
2020/12/11 04:31:11;;;;;;;;;;;;;;;-4.47;96.24;91508.50;1067544;55;20165;-83
2020/12/11 04:32:13;;;;;;;;;;;;;;;-4.47;96.23;91507.75;1065469;55;20640;-85
2020/12/11 04:33:13;;;;;;;;;;;;;;;-4.42;96.51;91504.81;1067466;55;20239;-83
2020/12/11 04:34:14;;;;;;;;;;;;;;;-4.47;95.92;91505.91;1067545;55;20239;-83
2020/12/11 04:35:14;;;;;;;;;;;;;;;-4.41;95.54;91501.09;1060945;56;20220;-82
2020/12/11 04:36:16;;;;;;;;;;;;;;;-4.38;96.57;91497.78;1063168;55;20187;-83
2020/12/11 04:37:16;;;;;;;;;;;;;;;-4.35;96.35;91502.97;1065391;55;20656;-83
2020/12/11 04:38:17;;;;;;;;;;;;;;;-4.34;96.51;91499.28;1063379;55;20165;-84
2020/12/11 04:39:18;;;;;;;;;;;;;;;-4.34;95.65;91490.72;1067691;55;20161;-84
2020/12/11 04:40:20;;;;;;;;;;;;;;;-4.38;95.91;91487.34;1067341;55;20160;-83
2020/12/11 04:41:20;;;;;;;;;;;;;;;-4.44;95.99;91479.09;1067598;55;21182;-84
2020/12/11 04:42:22;;;;;;;;;;;;;;;-4.38;95.71;91484.72;1067561;55;20168;-82
2020/12/11 04:43:22;;;;;;;;;;;;;;;-4.34;96.23;91490.72;1067618;55;20172;-84
2020/12/11 04:44:23;;;;;;;;;;;;;;;-4.32;95.87;91491.84;1065426;55;20679;-84
2020/12/11 04:45:24;;;;;;;;;;;;;;;-4.36;95.26;91488.44;1063175;55;20189;-83
2020/12/11 04:46:27;;;;;;;;;;;;;;;-4.39;95.67;91478.78;1063231;55;20169;-82
2020/12/11 04:47:28;;;;;;;;;;;;;;;-4.38;96.51;91479.50;1065426;55;20742;-84
2020/12/11 04:48:30;;;;;;;;;;;;;;;-4.45;96.06;91474.97;1062964;55;20259;-86
2020/12/11 04:49:33;;;;;;;;;;;;;;;-4.50;95.92;91477.94;1065336;55;20626;-83
2020/12/11 04:50:33;;;;;;;;;;;;;;;-4.48;95.64;91472.34;1065456;55;20188;-83
2020/12/11 04:51:34;;;;;;;;;;;;;;;-4.39;95.89;91473.56;1065182;55;20169;-83
2020/12/11 04:52:36;;;;;;;;;;;;;;;-4.34;95.85;91473.22;1063100;55;20251;-83
2020/12/11 04:53:37;;;;;;;;;;;;;;;-4.27;96.10;91477.72;1063247;55;20170;-83
2020/12/11 04:54:38;;;;;;;;;;;;;;;-4.29;95.91;91469.50;1061093;55;20237;-84
2020/12/11 04:55:41;;;;;;;;;;;;;;;-4.30;96.33;91473.25;1065372;55;20664;-82
2020/12/11 04:56:45;;;;;;;;;;;;;;;-4.30;95.80;91473.25;1069509;55;21174;-84
2020/12/11 04:57:47;;;;;;;;;;;;;;;-4.27;96.52;91479.56;1067386;55;20205;-85
2020/12/11 04:58:49;;;;;;;;;;;;;;;-4.25;96.46;91470.28;1065361;55;20262;-82
2020/12/11 04:59:51;;;;;;;;;;;;;;;-4.23;96.16;91477.72;1063233;55;20733;-84
2020/12/11 05:00:52;;;;;;;;;;;;;;;-4.25;95.58;91475.50;1065399;55;20652;-83
2020/12/11 05:01:55;;;;;;;;;;;;;;;-4.39;95.59;91470.16;1067458;55;20156;-83
2020/12/11 05:02:56;;;;;;;;;;;;;;;-4.34;95.62;91482.91;1065403;55;20173;-83
2020/12/11 05:03:58;;;;;;;;;;;;;;;-4.28;96.66;91489.25;1067517;55;20192;-84
2020/12/11 05:04:59;;;;;;;;;;;;;;;-4.34;96.16;91472.47;1069708;55;20222;-83
2020/12/11 05:05:59;;;;;;;;;;;;;;;-4.31;95.46;91480.28;1065328;55;20633;-82
2020/12/11 05:07:00;;;;;;;;;;;;;;;-4.31;95.21;91482.16;1067484;55;20176;-82
2020/12/11 05:08:00;;;;;;;;;;;;;;;-4.43;95.08;91480.59;1067526;55;20157;-84
2020/12/11 05:09:10;;;;;;;;;;;;;;;-4.38;96.84;91476.91;1067391;55;20172;-84
2020/12/11 05:10:11;;;;;;;;;;;;;;;-4.36;95.87;91480.63;1065647;55;20642;-82
2020/12/11 05:11:27;;;;;;;;;;;;;;;-4.31;96.12;91485.50;1065239;55;20165;-86
2020/12/11 05:12:28;;;;;;;;;;;;;;;-4.25;95.75;91480.72;1065939;55;20184;-82
2020/12/11 05:13:28;;;;;;;;;;;;;;;-4.26;96.29;91479.19;1065291;55;20157;-83
2020/12/11 05:14:34;;;;;;;;;;;;;;;-4.27;95.05;91480.31;1067550;55;20160;-84
2020/12/11 05:15:34;;;;;;;;;;;;;;;-4.26;95.33;91473.97;1067476;55;20629;-83
2020/12/11 05:16:35;;;;;;;;;;;;;;;-4.25;95.37;91474.75;1065222;55;20243;-83
2020/12/11 05:17:37;;;;;;;;;;;;;;;-4.16;96.02;91472.56;1067373;55;20177;-83
2020/12/11 05:18:38;;;;;;;;;;;;;;;-4.21;95.73;91473.66;1065419;55;20204;-83